createdAt,value
2018-07-28T00:01:12.768Z,99.90
2018-07-28T00:03:40.898Z,99.90
2018-07-28T00:06:09.049Z,99.90
2018-07-28T00:08:37.161Z,99.90
2018-07-28T00:11:05.296Z,99.90
2018-07-28T00:13:33.421Z,99.90
2018-07-28T00:16:01.553Z,99.90
2018-07-28T00:18:29.689Z,99.90
2018-07-28T00:20:57.831Z,99.90
2018-07-28T00:23:25.952Z,99.90
2018-07-28T00:25:59.704Z,99.90
2018-07-28T00:28:27.800Z,99.90
2018-07-28T00:30:55.958Z,99.90
2018-07-28T00:33:24.121Z,99.90
2018-07-28T00:35:52.416Z,99.90
2018-07-28T00:38:20.548Z,99.90
2018-07-28T00:40:48.669Z,99.90
2018-07-28T00:43:16.789Z,99.90
2018-07-28T00:45:44.936Z,99.90
2018-07-28T00:48:13.053Z,99.90
2018-07-28T00:50:41.158Z,99.90
2018-07-28T00:53:09.487Z,99.90
2018-07-28T00:55:37.705Z,99.90
2018-07-28T00:58:06.054Z,99.90
2018-07-28T01:00:34.188Z,99.90
2018-07-28T01:03:02.585Z,99.90
2018-07-28T01:05:30.713Z,99.90
2018-07-28T01:07:58.856Z,99.90
2018-07-28T01:10:26.989Z,99.90
2018-07-28T01:12:55.093Z,99.90
2018-07-28T01:15:23.201Z,99.90
2018-07-28T01:17:51.306Z,99.90
2018-07-28T01:20:19.472Z,99.90
2018-07-28T01:22:47.575Z,99.90
2018-07-28T01:25:15.672Z,99.90
2018-07-28T01:27:43.785Z,99.90
2018-07-28T01:30:19.036Z,99.90
2018-07-28T01:32:48.155Z,99.90
2018-07-28T01:35:16.296Z,99.90
2018-07-28T01:37:44.429Z,99.90
2018-07-28T01:40:12.532Z,99.90
2018-07-28T01:42:40.660Z,99.90
2018-07-28T01:45:09.280Z,99.90
2018-07-28T01:47:37.433Z,99.90
2018-07-28T01:50:06.349Z,99.90
2018-07-28T01:52:34.510Z,99.90
2018-07-28T01:55:02.686Z,99.90
2018-07-28T01:57:30.942Z,99.90
2018-07-28T01:59:59.098Z,99.90
2018-07-28T02:02:27.225Z,99.90
2018-07-28T02:04:55.343Z,99.90
2018-07-28T02:07:23.482Z,99.90
2018-07-28T02:09:51.569Z,99.90
2018-07-28T02:12:19.745Z,99.90
2018-07-28T02:14:47.837Z,99.90
2018-07-28T02:17:15.981Z,99.90
2018-07-28T02:19:45.030Z,99.90
2018-07-28T02:22:13.134Z,99.90
2018-07-28T02:24:41.269Z,99.90
2018-07-28T02:27:09.376Z,99.90
2018-07-28T02:29:37.480Z,99.90
2018-07-28T02:32:05.608Z,99.90
2018-07-28T02:34:33.746Z,99.90
2018-07-28T02:37:01.902Z,99.90
2018-07-28T02:39:30.029Z,99.90
2018-07-28T02:41:58.141Z,99.90
2018-07-28T02:44:26.262Z,99.90
2018-07-28T02:46:54.369Z,99.90
2018-07-28T02:49:22.489Z,99.90
2018-07-28T02:51:50.593Z,99.90
2018-07-28T02:54:18.712Z,99.90
2018-07-28T02:56:46.821Z,99.90
2018-07-28T02:59:14.928Z,99.90
2018-07-28T03:01:43.055Z,99.90
2018-07-28T03:04:11.169Z,99.90
2018-07-28T03:06:39.279Z,99.90
2018-07-28T03:09:09.885Z,99.90
2018-07-28T03:11:38.505Z,99.90
2018-07-28T03:14:06.633Z,99.90
2018-07-28T03:16:34.745Z,99.90
2018-07-28T03:19:02.882Z,99.90
2018-07-28T03:21:31.011Z,99.90
2018-07-28T03:23:59.151Z,99.90
2018-07-28T03:26:27.264Z,99.90
2018-07-28T03:28:55.363Z,99.90
2018-07-28T03:31:23.479Z,99.90
2018-07-28T03:33:51.621Z,99.90
2018-07-28T03:36:19.728Z,99.90
2018-07-28T03:38:48.017Z,99.90
2018-07-28T03:41:16.256Z,99.90
2018-07-28T03:43:44.399Z,99.90
2018-07-28T03:46:12.509Z,99.90
2018-07-28T03:48:40.608Z,99.90
2018-07-28T03:51:08.722Z,99.90
2018-07-28T03:53:36.829Z,99.90
2018-07-28T03:56:04.964Z,99.90
2018-07-28T03:58:33.097Z,99.90
2018-07-28T04:01:01.284Z,99.90
2018-07-28T04:03:29.417Z,99.90
2018-07-28T04:05:57.596Z,99.90
2018-07-28T04:08:25.685Z,99.90
2018-07-28T04:10:53.803Z,99.90
2018-07-28T04:13:21.913Z,99.90
2018-07-28T04:15:50.025Z,99.90
2018-07-28T04:18:18.113Z,99.90
2018-07-28T04:20:46.247Z,99.90
2018-07-28T04:23:14.360Z,99.90
2018-07-28T04:25:42.467Z,99.90
2018-07-28T04:28:10.973Z,99.90
2018-07-28T04:30:39.112Z,99.90
2018-07-28T04:33:07.215Z,99.90
2018-07-28T04:35:35.353Z,99.90
2018-07-28T04:38:03.481Z,99.90
2018-07-28T04:40:31.617Z,99.90
2018-07-28T04:42:59.757Z,99.90
2018-07-28T04:45:27.872Z,99.90
2018-07-28T04:47:55.965Z,99.90
2018-07-28T04:50:24.091Z,99.90
2018-07-28T04:52:52.438Z,99.90
2018-07-28T04:55:20.565Z,99.90
2018-07-28T04:57:48.661Z,99.90
2018-07-28T05:00:16.780Z,99.90
2018-07-28T05:02:44.889Z,99.90
2018-07-28T05:05:12.993Z,99.90
2018-07-28T05:07:41.178Z,99.90
2018-07-28T05:10:09.211Z,99.90
2018-07-28T05:12:37.322Z,99.90
2018-07-28T05:15:06.124Z,99.90
2018-07-28T05:17:34.304Z,99.90
2018-07-28T05:20:02.422Z,99.90
2018-07-28T05:22:30.538Z,99.90
2018-07-28T05:24:58.680Z,99.90
2018-07-28T05:27:32.674Z,99.90
2018-07-28T05:30:00.781Z,99.90
2018-07-28T05:32:28.904Z,99.90
2018-07-28T05:34:57.028Z,99.90
2018-07-28T05:37:25.153Z,99.90
2018-07-28T05:39:53.509Z,99.90
2018-07-28T05:42:21.657Z,99.90
2018-07-28T05:44:49.756Z,99.90
2018-07-28T05:47:17.901Z,99.90
2018-07-28T05:49:46.024Z,99.90
2018-07-28T05:52:14.159Z,99.90
2018-07-28T05:54:42.294Z,99.90
2018-07-28T05:57:10.829Z,99.90
2018-07-28T05:59:39.037Z,99.90
2018-07-28T06:02:07.394Z,99.90
2018-07-28T06:04:35.479Z,99.90
2018-07-28T06:07:03.606Z,99.90
2018-07-28T06:09:31.714Z,99.90
2018-07-28T06:11:59.870Z,99.90
2018-07-28T06:14:27.957Z,99.90
2018-07-28T06:16:56.073Z,99.90
2018-07-28T06:19:24.183Z,99.90
2018-07-28T06:21:52.340Z,99.90
2018-07-28T06:24:20.458Z,99.90
2018-07-28T06:26:48.591Z,99.90
2018-07-28T06:29:16.705Z,99.90
2018-07-28T06:31:44.932Z,99.90
2018-07-28T06:34:12.945Z,99.90
2018-07-28T06:36:41.071Z,99.90
2018-07-28T06:39:11.261Z,99.90
2018-07-28T06:41:39.582Z,99.90
2018-07-28T06:44:07.780Z,99.90
2018-07-28T06:46:35.917Z,99.90
2018-07-28T06:49:04.049Z,99.90
2018-07-28T06:51:32.168Z,99.90
2018-07-28T06:54:00.286Z,99.90
2018-07-28T06:56:28.411Z,99.90
2018-07-28T06:58:56.550Z,99.90
2018-07-28T07:01:24.737Z,99.90
2018-07-28T07:03:52.883Z,99.90
2018-07-28T07:06:27.691Z,99.90
2018-07-28T07:08:55.806Z,99.90
2018-07-28T07:11:23.965Z,99.90
2018-07-28T07:13:52.486Z,99.90
2018-07-28T07:16:20.742Z,99.90
2018-07-28T07:18:49.866Z,99.90
2018-07-28T07:21:17.994Z,99.90
2018-07-28T07:23:46.117Z,99.90
2018-07-28T07:26:14.243Z,99.90
2018-07-28T07:28:42.381Z,99.90
2018-07-28T07:31:10.514Z,99.90
2018-07-28T07:33:38.677Z,99.90
2018-07-28T07:36:06.859Z,99.90
2018-07-28T07:38:34.957Z,99.90
2018-07-28T07:41:03.065Z,99.90
2018-07-28T07:43:31.206Z,99.90
2018-07-28T07:45:59.327Z,99.90
2018-07-28T07:48:27.481Z,99.90
2018-07-28T07:50:55.596Z,99.90
2018-07-28T07:53:23.732Z,99.90
2018-07-28T07:55:51.853Z,99.90
2018-07-28T07:58:19.964Z,99.90
2018-07-28T08:00:48.175Z,99.90
2018-07-28T08:03:16.381Z,99.90
2018-07-28T08:05:44.519Z,99.90
2018-07-28T08:08:12.671Z,99.90
2018-07-28T08:10:41.777Z,99.90
2018-07-28T08:13:09.936Z,99.90
2018-07-28T08:15:38.089Z,99.90
2018-07-28T08:18:06.293Z,99.90
2018-07-28T08:20:34.401Z,99.90
2018-07-28T08:23:02.511Z,99.90
2018-07-28T08:25:30.629Z,99.90
2018-07-28T08:27:58.749Z,99.90
2018-07-28T08:30:26.853Z,99.90
2018-07-28T08:32:54.973Z,99.90
2018-07-28T08:35:23.085Z,99.90
2018-07-28T08:37:51.240Z,99.90
2018-07-28T08:40:19.314Z,99.90
2018-07-28T08:42:47.432Z,99.90
2018-07-28T08:45:15.801Z,99.90
2018-07-28T08:47:43.927Z,99.90
2018-07-28T08:50:12.073Z,99.90
2018-07-28T08:52:40.205Z,99.90
2018-07-28T08:55:08.337Z,99.90
2018-07-28T08:57:36.452Z,99.90
2018-07-28T09:00:05.425Z,99.90
2018-07-28T09:02:33.550Z,99.70
2018-07-28T09:05:01.674Z,99.50
2018-07-28T09:07:29.781Z,98.80
2018-07-28T09:09:58.096Z,98.80
2018-07-28T09:12:26.248Z,98.30
2018-07-28T09:14:54.346Z,98.00
2018-07-28T09:17:22.465Z,97.50
2018-07-28T09:19:50.628Z,96.90
2018-07-28T09:22:18.799Z,96.00
2018-07-28T09:24:46.997Z,95.50
2018-07-28T09:27:15.545Z,94.30
2018-07-28T09:29:43.752Z,93.80
2018-07-28T09:32:11.929Z,93.00
2018-07-28T09:34:40.084Z,93.10
2018-07-28T09:37:08.265Z,93.00
2018-07-28T09:39:36.428Z,91.90
2018-07-28T09:42:04.574Z,92.00
2018-07-28T09:44:32.745Z,91.50
2018-07-28T09:47:00.866Z,91.20
2018-07-28T09:49:29.006Z,90.80
2018-07-28T09:51:57.132Z,91.20
2018-07-28T09:54:25.262Z,91.10
2018-07-28T09:56:53.342Z,91.10
2018-07-28T09:59:21.456Z,89.80
2018-07-28T10:01:49.596Z,88.70
2018-07-28T10:04:17.727Z,86.50
2018-07-28T10:06:45.905Z,85.10
2018-07-28T10:09:14.078Z,82.70
2018-07-28T10:11:42.257Z,83.10
2018-07-28T10:14:10.436Z,82.60
2018-07-28T10:16:38.618Z,83.10
2018-07-28T10:19:06.776Z,81.60
2018-07-28T10:21:34.946Z,81.80
2018-07-28T10:24:03.072Z,82.70
2018-07-28T10:26:31.196Z,80.60
2018-07-28T10:28:59.399Z,81.30
2018-07-28T10:31:27.782Z,81.60
2018-07-28T10:33:55.960Z,81.90
2018-07-28T10:36:24.239Z,83.40
2018-07-28T10:38:52.287Z,83.00
2018-07-28T10:41:20.481Z,82.80
2018-07-28T10:43:48.620Z,82.30
2018-07-28T10:46:19.726Z,82.70
2018-07-28T10:48:48.461Z,83.40
2018-07-28T10:51:16.724Z,83.50
2018-07-28T10:53:45.223Z,81.80
2018-07-28T10:56:13.509Z,81.50
2018-07-28T10:58:42.054Z,81.70
2018-07-28T11:01:10.241Z,81.50
2018-07-28T11:03:38.429Z,79.70
2018-07-28T11:06:06.836Z,77.80
2018-07-28T11:08:34.973Z,77.40
2018-07-28T11:11:03.079Z,76.40
2018-07-28T11:13:31.265Z,75.90
2018-07-28T11:15:59.374Z,73.30
2018-07-28T11:18:27.512Z,75.00
2018-07-28T11:20:55.629Z,73.00
2018-07-28T11:23:34.943Z,73.30
2018-07-28T11:26:03.179Z,72.40
2018-07-28T11:28:31.251Z,72.20
2018-07-28T11:30:59.376Z,72.30
2018-07-28T11:33:38.870Z,71.90
2018-07-28T11:36:18.310Z,71.50
2018-07-28T11:38:57.685Z,70.90
2018-07-28T11:41:37.209Z,70.80
2018-07-28T11:44:16.612Z,70.50
2018-07-28T11:46:44.720Z,70.40
2018-07-28T11:49:12.873Z,69.80
2018-07-28T11:51:41.031Z,69.90
2018-07-28T11:54:09.235Z,70.90
2018-07-28T11:56:37.996Z,70.70
2018-07-28T11:59:06.131Z,71.40
2018-07-28T12:01:34.315Z,71.40
2018-07-28T12:04:02.428Z,71.70
2018-07-28T12:06:30.597Z,72.20
2018-07-28T12:08:58.809Z,72.60
2018-07-28T12:11:27.717Z,73.00
2018-07-28T12:13:55.934Z,74.10
2018-07-28T12:16:24.049Z,74.40
2018-07-28T12:18:52.164Z,74.30
2018-07-28T12:21:20.289Z,73.80
2018-07-28T12:23:48.500Z,74.00
2018-07-28T12:26:16.610Z,74.50
2018-07-28T12:28:45.775Z,75.70
2018-07-28T12:31:14.042Z,76.20
2018-07-28T12:33:42.189Z,76.90
2018-07-28T12:36:10.341Z,77.40
2018-07-28T12:38:38.693Z,78.40
2018-07-28T12:41:07.041Z,79.80
2018-07-28T12:43:35.121Z,80.50
2018-07-28T12:46:03.257Z,80.60
2018-07-28T12:48:31.393Z,81.10
2018-07-28T12:50:59.561Z,80.80
2018-07-28T12:53:27.682Z,78.60
2018-07-28T12:55:55.862Z,77.70
2018-07-28T12:58:24.004Z,77.30
2018-07-28T13:00:52.134Z,77.00
2018-07-28T13:03:20.312Z,76.90
2018-07-28T13:05:48.485Z,76.90
2018-07-28T13:08:16.620Z,77.70
2018-07-28T13:10:44.822Z,77.10
2018-07-28T13:13:13.010Z,76.40
2018-07-28T13:15:41.474Z,76.40
2018-07-28T13:18:09.669Z,75.40
2018-07-28T13:20:37.871Z,74.50
2018-07-28T13:23:06.520Z,72.20
2018-07-28T13:25:34.759Z,70.90
2018-07-28T13:28:02.882Z,71.20
2018-07-28T13:30:31.023Z,71.50
2018-07-28T13:32:59.142Z,70.90
2018-07-28T13:35:27.382Z,70.10
2018-07-28T13:37:55.414Z,70.30
2018-07-28T13:40:23.609Z,70.00
2018-07-28T13:42:51.793Z,69.60
2018-07-28T13:45:19.904Z,70.50
2018-07-28T13:47:48.131Z,70.70
2018-07-28T13:50:16.205Z,70.00
2018-07-28T13:52:44.369Z,69.80
2018-07-28T13:55:12.548Z,70.90
2018-07-28T13:57:40.728Z,70.90
2018-07-28T14:00:09.099Z,70.60
2018-07-28T14:02:37.301Z,70.70
2018-07-28T14:05:05.470Z,71.00
2018-07-28T14:07:33.586Z,70.80
2018-07-28T14:10:01.761Z,70.20
2018-07-28T14:12:29.881Z,70.20
2018-07-28T14:14:58.041Z,70.50
2018-07-28T14:17:26.144Z,70.40
2018-07-28T14:19:54.277Z,70.90
2018-07-28T14:22:22.396Z,71.40
2018-07-28T14:24:50.941Z,71.30
2018-07-28T14:27:19.066Z,71.40
2018-07-28T14:29:47.213Z,71.80
2018-07-28T14:32:15.373Z,72.80
2018-07-28T14:34:43.625Z,73.20
2018-07-28T14:37:11.816Z,74.00
2018-07-28T14:39:40.004Z,74.90
2018-07-28T14:42:08.491Z,75.40
2018-07-28T14:44:36.627Z,76.20
2018-07-28T14:47:05.029Z,76.60
2018-07-28T14:49:33.179Z,76.90
2018-07-28T14:52:01.304Z,77.40
2018-07-28T14:54:29.438Z,77.40
2018-07-28T14:56:57.548Z,77.50
2018-07-28T14:59:25.668Z,78.20
2018-07-28T15:01:53.878Z,78.60
2018-07-28T15:04:22.073Z,78.40
2018-07-28T15:06:50.237Z,78.70
2018-07-28T15:09:19.390Z,79.20
2018-07-28T15:11:48.517Z,79.60
2018-07-28T15:14:16.728Z,80.30
2018-07-28T15:16:44.951Z,80.30
2018-07-28T15:19:13.157Z,80.30
2018-07-28T15:21:41.336Z,80.60
2018-07-28T15:24:09.510Z,80.50
2018-07-28T15:26:37.782Z,80.60
2018-07-28T15:29:06.974Z,81.20
2018-07-28T15:31:35.141Z,80.90
2018-07-28T15:34:03.290Z,80.90
2018-07-28T15:36:31.402Z,81.30
2018-07-28T15:38:59.865Z,81.50
2018-07-28T15:41:28.021Z,81.60
2018-07-28T15:43:56.200Z,81.60
2018-07-28T15:46:24.324Z,82.00
2018-07-28T15:48:53.464Z,83.00
2018-07-28T15:51:21.634Z,82.40
2018-07-28T15:53:49.733Z,83.00
2018-07-28T15:56:17.938Z,83.40
2018-07-28T15:58:45.984Z,83.70
2018-07-28T16:01:14.239Z,83.90
2018-07-28T16:03:42.412Z,84.20
2018-07-28T16:06:10.605Z,84.50
2018-07-28T16:08:38.792Z,84.90
2018-07-28T16:11:06.968Z,84.90
2018-07-28T16:13:35.120Z,85.30
2018-07-28T16:16:03.260Z,85.70
2018-07-28T16:18:31.458Z,86.00
2018-07-28T16:20:59.610Z,86.60
2018-07-28T16:23:27.754Z,86.50
2018-07-28T16:25:55.885Z,86.90
2018-07-28T16:28:24.057Z,87.40
2018-07-28T16:30:52.346Z,88.80
2018-07-28T16:33:20.573Z,90.10
2018-07-28T16:35:48.778Z,90.90
2018-07-28T16:38:17.013Z,91.60
2018-07-28T16:40:45.107Z,92.10
2018-07-28T16:43:13.304Z,92.50
2018-07-28T16:45:41.477Z,93.20
2018-07-28T16:48:09.671Z,93.50
2018-07-28T16:50:37.827Z,93.60
2018-07-28T16:53:05.965Z,93.60
2018-07-28T16:55:36.955Z,93.80
2018-07-28T16:58:05.221Z,93.80
2018-07-28T17:00:33.372Z,93.40
2018-07-28T17:03:01.524Z,93.60
2018-07-28T17:05:29.669Z,93.80
2018-07-28T17:07:57.816Z,94.00
2018-07-28T17:10:25.938Z,94.40
2018-07-28T17:12:54.297Z,94.50
2018-07-28T17:15:22.433Z,94.60
2018-07-28T17:17:50.900Z,94.80
2018-07-28T17:20:19.047Z,94.80
2018-07-28T17:22:47.296Z,94.70
2018-07-28T17:25:15.349Z,94.90
2018-07-28T17:27:43.481Z,95.10
2018-07-28T17:30:11.664Z,95.30
2018-07-28T17:32:39.834Z,95.30
2018-07-28T17:35:07.998Z,95.60
2018-07-28T17:37:36.143Z,95.80
2018-07-28T17:40:04.317Z,95.70
2018-07-28T17:42:32.481Z,95.60
2018-07-28T17:45:00.617Z,95.90
2018-07-28T17:47:28.735Z,96.00
2018-07-28T17:49:57.849Z,95.80
2018-07-28T17:52:25.973Z,95.70
2018-07-28T17:54:54.099Z,95.30
2018-07-28T17:57:22.224Z,95.00
2018-07-28T17:59:50.391Z,94.90
2018-07-28T18:02:18.509Z,94.80
2018-07-28T18:04:46.669Z,94.70
2018-07-28T18:07:14.861Z,94.80
2018-07-28T18:09:43.005Z,94.80
2018-07-28T18:12:12.058Z,94.90
2018-07-28T18:14:40.198Z,94.80
2018-07-28T18:17:08.448Z,94.60
2018-07-28T18:19:36.646Z,94.60
2018-07-28T18:22:04.705Z,94.40
2018-07-28T18:24:32.840Z,94.40
2018-07-28T18:27:00.964Z,94.30
2018-07-28T18:29:29.073Z,94.30
2018-07-28T18:31:57.192Z,94.40
2018-07-28T18:34:25.306Z,94.30
2018-07-28T18:36:53.397Z,93.90
2018-07-28T18:39:21.511Z,94.20
2018-07-28T18:41:50.689Z,93.80
2018-07-28T18:44:18.776Z,93.90
2018-07-28T18:46:46.969Z,93.90
2018-07-28T18:49:15.154Z,93.90
2018-07-28T18:51:43.334Z,94.20
2018-07-28T18:54:11.498Z,94.20
2018-07-28T18:56:39.891Z,94.10
2018-07-28T18:59:08.294Z,94.20
2018-07-28T19:01:37.454Z,94.20
2018-07-28T19:04:05.849Z,94.20
2018-07-28T19:06:34.047Z,94.10
2018-07-28T19:09:07.663Z,94.20
2018-07-28T19:11:35.772Z,94.20
2018-07-28T19:14:09.261Z,94.20
2018-07-28T19:16:37.475Z,94.30
2018-07-28T19:19:11.034Z,94.20
2018-07-28T19:21:39.382Z,94.30
2018-07-28T19:24:07.593Z,94.30
2018-07-28T19:26:35.793Z,94.40
2018-07-28T19:29:09.318Z,94.40
2018-07-28T19:31:37.495Z,94.60
2018-07-28T19:34:05.792Z,94.70
2018-07-28T19:36:40.982Z,94.80
2018-07-28T19:39:10.812Z,94.90
2018-07-28T19:41:44.518Z,95.00
2018-07-28T19:44:13.185Z,95.10
2018-07-28T19:46:41.487Z,95.20
2018-07-28T19:49:09.761Z,95.20
2018-07-28T19:51:38.389Z,95.50
2018-07-28T19:54:06.520Z,95.40
2018-07-28T19:56:34.901Z,95.40
2018-07-28T19:59:03.230Z,95.40
2018-07-28T20:01:31.391Z,95.80
2018-07-28T20:03:59.590Z,95.70
2018-07-28T20:06:27.736Z,95.90
2018-07-28T20:08:55.898Z,96.00
2018-07-28T20:11:24.914Z,96.00
2018-07-28T20:13:53.072Z,96.50
2018-07-28T20:16:21.197Z,96.30
2018-07-28T20:18:49.422Z,96.50
2018-07-28T20:21:17.598Z,96.70
2018-07-28T20:23:45.733Z,96.70
2018-07-28T20:26:15.963Z,96.90
2018-07-28T20:28:44.113Z,97.00
2018-07-28T20:31:12.293Z,97.40
2018-07-28T20:33:40.509Z,97.80
2018-07-28T20:36:08.647Z,98.00
2018-07-28T20:38:36.793Z,98.10
2018-07-28T20:41:04.983Z,97.80
2018-07-28T20:43:33.152Z,97.80
2018-07-28T20:46:01.423Z,98.30
2018-07-28T20:48:29.594Z,97.50
2018-07-28T20:50:58.751Z,98.10
2018-07-28T20:53:26.889Z,98.10
2018-07-28T20:55:55.055Z,98.60
2018-07-28T20:58:23.222Z,98.40
2018-07-28T21:00:51.395Z,98.60
2018-07-28T21:03:19.530Z,99.00
2018-07-28T21:05:47.673Z,99.20
2018-07-28T21:08:15.901Z,99.60
2018-07-28T21:10:44.308Z,99.80
2018-07-28T21:13:12.637Z,99.90
2018-07-28T21:15:40.858Z,99.90
2018-07-28T21:18:09.052Z,99.90
2018-07-28T21:20:37.251Z,99.90
2018-07-28T21:23:05.430Z,99.90
2018-07-28T21:25:33.632Z,99.90
2018-07-28T21:28:01.801Z,99.90
2018-07-28T21:30:29.883Z,99.90
2018-07-28T21:32:58.009Z,99.90
2018-07-28T21:35:26.152Z,99.90
2018-07-28T21:37:54.364Z,99.90
2018-07-28T21:40:22.512Z,99.90
2018-07-28T21:42:50.662Z,99.90
2018-07-28T21:45:19.813Z,99.90
2018-07-28T21:47:47.974Z,99.90
2018-07-28T21:50:16.137Z,99.90
2018-07-28T21:52:44.337Z,99.90
2018-07-28T21:55:12.498Z,99.90
2018-07-28T21:57:40.785Z,99.90
2018-07-28T22:00:09.650Z,99.90
2018-07-28T22:02:37.851Z,99.90
2018-07-28T22:05:06.194Z,99.90
2018-07-28T22:07:34.389Z,99.90
2018-07-28T22:10:02.528Z,99.90
2018-07-28T22:12:30.666Z,99.90
2018-07-28T22:14:58.803Z,99.90
2018-07-28T22:17:26.930Z,99.90
2018-07-28T22:19:55.085Z,99.90
2018-07-28T22:22:23.273Z,99.90
2018-07-28T22:24:51.505Z,99.90
2018-07-28T22:27:19.652Z,99.90
2018-07-28T22:29:47.817Z,99.90
2018-07-28T22:32:15.949Z,99.90
2018-07-28T22:34:44.100Z,99.90
2018-07-28T22:37:12.323Z,99.90
2018-07-28T22:39:40.567Z,99.90
2018-07-28T22:42:08.832Z,99.90
2018-07-28T22:44:37.033Z,99.90
2018-07-28T22:47:05.351Z,99.90
2018-07-28T22:49:33.545Z,99.90
2018-07-28T22:52:01.728Z,99.90
2018-07-28T22:54:29.924Z,99.90
2018-07-28T22:56:58.109Z,99.90
2018-07-28T22:59:26.254Z,99.90
2018-07-28T23:01:54.421Z,99.90
2018-07-28T23:04:22.648Z,99.90
2018-07-28T23:06:50.888Z,99.90
2018-07-28T23:09:19.049Z,99.90
2018-07-28T23:11:47.261Z,99.90
2018-07-28T23:14:15.437Z,99.90
2018-07-28T23:16:43.608Z,99.90
2018-07-28T23:19:14.374Z,99.90
2018-07-28T23:21:44.344Z,99.90
2018-07-28T23:24:12.520Z,99.90
2018-07-28T23:26:40.708Z,99.90
2018-07-28T23:29:08.953Z,99.90
2018-07-28T23:31:37.212Z,99.90
2018-07-28T23:34:05.427Z,99.90
2018-07-28T23:36:33.555Z,99.90
2018-07-28T23:39:01.905Z,99.90
2018-07-28T23:41:30.093Z,99.90
2018-07-28T23:43:58.222Z,99.90
2018-07-28T23:46:26.403Z,99.90
2018-07-28T23:48:54.841Z,99.90
2018-07-28T23:51:22.984Z,99.90
2018-07-28T23:53:51.136Z,99.90
2018-07-28T23:56:19.298Z,99.90
2018-07-28T23:58:47.422Z,99.90
